createdAt,value
2019-04-27T00:00:00.104Z,98063.33
2019-04-27T00:02:55.882Z,98058.00
2019-04-27T00:05:36.620Z,98057.55
2019-04-27T00:08:24.078Z,98058.78
2019-04-27T00:11:08.493Z,98054.06
2019-04-27T00:13:40.435Z,98056.78
2019-04-27T00:16:28.018Z,98047.30
2019-04-27T00:19:14.996Z,98041.78
2019-04-27T00:21:54.740Z,98045.31
2019-04-27T00:24:24.542Z,98037.27
2019-04-27T00:26:54.375Z,98038.60
2019-04-27T00:29:26.082Z,98041.05
2019-04-27T00:31:55.756Z,98039.55
2019-04-27T00:34:25.203Z,98045.73
2019-04-27T00:37:23.760Z,98038.20
2019-04-27T00:40:00.171Z,98043.36
2019-04-27T00:42:29.425Z,98039.64
2019-04-27T00:44:58.680Z,98038.95
2019-04-27T00:47:27.925Z,98041.61
2019-04-27T00:49:57.173Z,98052.08
2019-04-27T00:52:26.423Z,98044.81
2019-04-27T00:54:55.653Z,98046.93
2019-04-27T00:57:43.843Z,98052.52
2019-04-27T01:00:41.388Z,98051.80
2019-04-27T01:03:15.071Z,98052.34
2019-04-27T01:05:44.375Z,98051.69
2019-04-27T01:08:13.943Z,98057.39
2019-04-27T01:10:43.605Z,98060.33
2019-04-27T01:13:15.531Z,98055.78
2019-04-27T01:15:44.759Z,98056.72
2019-04-27T01:18:15.526Z,98048.31
2019-04-27T01:20:48.904Z,98038.73
2019-04-27T01:23:19.308Z,98032.23
2019-04-27T01:26:09.805Z,98027.98
2019-04-27T01:28:45.127Z,98024.03
2019-04-27T01:31:15.894Z,98033.73
2019-04-27T01:33:46.423Z,98039.48
2019-04-27T01:36:15.680Z,98041.66
2019-04-27T01:38:46.072Z,98043.98
2019-04-27T01:41:15.304Z,98039.66
2019-04-27T01:43:44.900Z,98037.07
2019-04-27T01:46:14.455Z,98040.72
2019-04-27T01:48:43.697Z,98042.94
2019-04-27T01:51:14.222Z,98041.55
2019-04-27T01:53:43.480Z,98034.19
2019-04-27T01:56:12.955Z,98039.39
2019-04-27T01:58:42.219Z,98043.38
2019-04-27T02:01:44.778Z,98041.78
2019-04-27T02:04:22.458Z,98041.45
2019-04-27T02:06:53.008Z,98037.45
2019-04-27T02:09:23.528Z,98040.05
2019-04-27T02:11:54.126Z,98038.06
2019-04-27T02:14:23.493Z,98043.16
2019-04-27T02:16:52.753Z,98041.87
2019-04-27T02:19:22.000Z,98045.36
2019-04-27T02:21:52.134Z,98044.92
2019-04-27T02:24:21.381Z,98043.69
2019-04-27T02:26:51.723Z,98044.46
2019-04-27T02:29:29.059Z,98040.65
2019-04-27T02:32:07.265Z,98035.72
2019-04-27T02:34:47.071Z,98042.05
2019-04-27T02:37:20.103Z,98040.22
2019-04-27T02:39:50.015Z,98043.72
2019-04-27T02:42:20.586Z,98037.50
2019-04-27T02:44:49.828Z,98041.50
2019-04-27T02:47:21.497Z,98042.77
2019-04-27T02:49:51.152Z,98049.08
2019-04-27T02:52:30.198Z,98047.14
2019-04-27T02:54:59.963Z,98044.98
2019-04-27T02:57:30.165Z,98048.30
2019-04-27T03:00:00.149Z,98045.98
2019-04-27T03:02:52.088Z,98043.03
2019-04-27T03:05:25.990Z,98045.69
2019-04-27T03:07:55.994Z,98044.14
2019-04-27T03:10:26.934Z,98045.41
2019-04-27T03:13:04.108Z,98053.65
2019-04-27T03:15:49.754Z,98050.37
2019-04-27T03:18:40.210Z,98051.98
2019-04-27T03:21:14.999Z,98058.24
2019-04-27T03:23:45.774Z,98052.64
2019-04-27T03:26:34.067Z,98057.48
2019-04-27T03:29:03.416Z,98056.30
2019-04-27T03:31:33.306Z,98054.17
2019-04-27T03:34:06.011Z,98044.02
2019-04-27T03:36:35.472Z,98038.03
2019-04-27T03:39:07.181Z,98044.38
2019-04-27T03:41:36.677Z,98041.94
2019-04-27T03:44:09.302Z,98046.39
2019-04-27T03:46:39.749Z,98048.23
2019-04-27T03:49:09.782Z,98046.14
2019-04-27T03:52:02.459Z,98049.95
2019-04-27T03:54:45.154Z,98045.25
2019-04-27T03:57:32.352Z,98047.58
2019-04-27T04:00:09.880Z,98048.12
2019-04-27T04:02:40.075Z,98047.94
2019-04-27T04:05:10.062Z,98042.15
2019-04-27T04:07:40.385Z,98044.56
2019-04-27T04:10:10.714Z,98041.42
2019-04-27T04:13:14.393Z,98042.57
2019-04-27T04:15:53.705Z,98041.64
2019-04-27T04:18:24.309Z,98043.98
2019-04-27T04:20:54.141Z,98038.96
2019-04-27T04:23:23.382Z,98040.50
2019-04-27T04:25:52.611Z,98039.39
2019-04-27T04:28:21.827Z,98048.18
2019-04-27T04:30:51.078Z,98042.52
2019-04-27T04:33:20.903Z,98048.47
2019-04-27T04:35:51.477Z,98049.37
2019-04-27T04:38:20.871Z,98053.64
2019-04-27T04:40:59.239Z,98053.75
2019-04-27T04:43:39.675Z,98050.88
2019-04-27T04:46:26.158Z,98055.11
2019-04-27T04:48:55.466Z,98062.35
2019-04-27T04:51:24.740Z,98058.05
2019-04-27T04:53:54.007Z,98060.20
2019-04-27T04:56:23.266Z,98061.83
2019-04-27T04:58:52.510Z,98064.48
2019-04-27T05:01:21.866Z,98064.91
2019-04-27T05:03:51.373Z,98069.00
2019-04-27T05:06:20.773Z,98067.05
2019-04-27T05:08:50.000Z,98073.48
2019-04-27T05:11:19.744Z,98070.83
2019-04-27T05:13:49.446Z,98070.69
2019-04-27T05:16:20.019Z,98076.94
2019-04-27T05:18:49.593Z,98070.83
2019-04-27T05:21:31.752Z,98074.68
2019-04-27T05:24:01.876Z,98069.66
2019-04-27T05:26:31.136Z,98066.57
2019-04-27T05:29:00.343Z,98068.04
2019-04-27T05:31:29.901Z,98072.39
2019-04-27T05:34:01.317Z,98072.06
2019-04-27T05:36:30.565Z,98074.97
2019-04-27T05:39:01.904Z,98074.33
2019-04-27T05:41:37.484Z,98070.52
2019-04-27T05:44:20.854Z,98073.89
2019-04-27T05:47:09.998Z,98073.35
2019-04-27T05:49:44.415Z,98074.43
2019-04-27T05:52:29.393Z,98075.19
2019-04-27T05:54:59.657Z,98074.18
2019-04-27T05:57:31.361Z,98077.52
2019-04-27T06:00:02.302Z,98081.03
2019-04-27T06:02:31.533Z,98081.29
2019-04-27T06:05:00.751Z,98084.02
2019-04-27T06:07:32.298Z,98081.29
2019-04-27T06:10:01.532Z,98082.34
2019-04-27T06:12:30.772Z,98082.55
2019-04-27T06:15:00.240Z,98086.35
2019-04-27T06:17:30.182Z,98083.08
2019-04-27T06:19:59.882Z,98082.58
2019-04-27T06:22:29.749Z,98078.59
2019-04-27T06:25:00.304Z,98079.63
2019-04-27T06:27:30.538Z,98079.30
2019-04-27T06:30:00.918Z,98076.08
2019-04-27T06:32:30.222Z,98080.86
2019-04-27T06:34:59.523Z,98089.17
2019-04-27T06:37:29.927Z,98083.38
2019-04-27T06:40:01.333Z,98079.93
2019-04-27T06:42:30.890Z,98084.92
2019-04-27T06:45:00.844Z,98080.53
2019-04-27T06:47:30.160Z,98085.85
2019-04-27T06:49:59.443Z,98086.42
2019-04-27T06:52:29.705Z,98085.31
2019-04-27T06:55:00.629Z,98083.37
2019-04-27T06:57:41.218Z,98084.21
2019-04-27T07:00:11.767Z,98082.80
2019-04-27T07:02:41.293Z,98088.36
2019-04-27T07:05:12.009Z,98088.34
2019-04-27T07:07:41.261Z,98086.64
2019-04-27T07:10:10.525Z,98093.84
2019-04-27T07:12:41.071Z,98093.45
2019-04-27T07:15:10.948Z,98087.52
2019-04-27T07:17:40.548Z,98092.73
2019-04-27T07:20:09.904Z,98092.23
2019-04-27T07:22:39.741Z,98098.05
2019-04-27T07:25:11.720Z,98097.42
2019-04-27T07:27:43.400Z,98100.23
2019-04-27T07:30:14.722Z,98103.50
2019-04-27T07:32:43.761Z,98105.52
2019-04-27T07:35:13.035Z,98101.31
2019-04-27T07:37:42.251Z,98104.03
2019-04-27T07:40:12.801Z,98104.92
2019-04-27T07:42:45.935Z,98107.08
2019-04-27T07:45:23.505Z,98110.73
2019-04-27T07:47:54.088Z,98109.59
2019-04-27T07:50:23.339Z,98111.17
2019-04-27T07:52:52.577Z,98110.02
2019-04-27T07:55:24.187Z,98116.33
2019-04-27T07:57:53.719Z,98110.54
2019-04-27T08:00:23.400Z,98112.09
2019-04-27T08:02:52.655Z,98117.89
2019-04-27T08:05:22.527Z,98110.13
2019-04-27T08:07:51.764Z,98108.98
2019-04-27T08:10:21.013Z,98108.64
2019-04-27T08:13:00.427Z,98108.52
2019-04-27T08:15:30.668Z,98111.71
2019-04-27T08:17:59.899Z,98109.80
2019-04-27T08:20:30.713Z,98108.16
2019-04-27T08:23:02.913Z,98112.45
2019-04-27T08:25:34.444Z,98118.69
2019-04-27T08:28:28.788Z,98113.58
2019-04-27T08:31:18.727Z,98118.42
2019-04-27T08:33:48.667Z,98114.08
2019-04-27T08:36:18.999Z,98115.69
2019-04-27T08:38:48.952Z,98112.08
2019-04-27T08:41:21.265Z,98115.11
2019-04-27T08:43:50.529Z,98118.25
2019-04-27T08:46:19.767Z,98118.45
2019-04-27T08:48:49.162Z,98113.08
2019-04-27T08:51:19.652Z,98120.84
2019-04-27T08:53:50.147Z,98121.52
2019-04-27T08:56:19.508Z,98116.97
2019-04-27T08:58:49.920Z,98123.88
2019-04-27T09:01:20.773Z,98119.52
2019-04-27T09:03:51.599Z,98118.69
2019-04-27T09:06:20.897Z,98120.53
2019-04-27T09:09:01.145Z,98121.58
2019-04-27T09:11:47.191Z,98114.16
2019-04-27T09:14:35.362Z,98110.98
2019-04-27T09:17:13.681Z,98110.05
2019-04-27T09:20:18.558Z,98108.72
2019-04-27T09:22:49.275Z,98109.51
2019-04-27T09:25:19.298Z,98100.63
2019-04-27T09:27:49.395Z,98106.89
2019-04-27T09:30:19.179Z,98107.89
2019-04-27T09:32:48.564Z,98106.03
2019-04-27T09:35:17.815Z,98100.14
2019-04-27T09:37:47.059Z,98108.09
2019-04-27T09:40:17.189Z,98105.20
2019-04-27T09:42:46.954Z,98100.07
2019-04-27T09:45:16.501Z,98091.09
2019-04-27T09:47:47.202Z,98094.34
2019-04-27T09:50:17.159Z,98090.75
2019-04-27T09:52:46.737Z,98098.11
2019-04-27T09:55:17.082Z,98090.80
2019-04-27T09:57:46.612Z,98091.16
2019-04-27T10:00:16.521Z,98086.88
2019-04-27T10:02:46.563Z,98089.69
2019-04-27T10:05:17.188Z,98096.50
2019-04-27T10:07:47.690Z,98091.69
2019-04-27T10:10:18.205Z,98095.17
2019-04-27T10:12:47.710Z,98092.75
2019-04-27T10:15:19.400Z,98093.73
2019-04-27T10:17:48.660Z,98088.09
2019-04-27T10:20:20.877Z,98078.66
2019-04-27T10:22:50.256Z,98077.40
2019-04-27T10:25:23.910Z,98067.64
2019-04-27T10:28:00.846Z,98073.76
2019-04-27T10:30:32.160Z,98067.34
2019-04-27T10:33:01.406Z,98064.16
2019-04-27T10:35:30.626Z,98067.97
2019-04-27T10:37:59.858Z,98069.97
2019-04-27T10:40:29.064Z,98074.22
2019-04-27T10:42:58.325Z,98068.48
2019-04-27T10:45:27.927Z,98068.68
2019-04-27T10:47:57.878Z,98068.09
2019-04-27T10:50:27.118Z,98074.88
2019-04-27T10:52:59.116Z,98067.47
2019-04-27T10:55:27.309Z,98065.02
2019-04-27T10:57:56.574Z,98059.70
2019-04-27T11:00:32.392Z,98059.18
2019-04-27T11:03:02.655Z,98053.24
2019-04-27T11:05:38.877Z,98047.05
2019-04-27T11:08:08.481Z,98049.23
2019-04-27T11:10:37.735Z,98043.73
2019-04-27T11:13:06.983Z,98046.39
2019-04-27T11:15:37.145Z,98033.80
2019-04-27T11:18:06.867Z,98033.80
2019-04-27T11:20:36.381Z,98032.71
2019-04-27T11:23:09.174Z,98025.94
2019-04-27T11:25:37.201Z,98028.68
2019-04-27T11:28:06.459Z,98025.19
2019-04-27T11:30:36.086Z,98027.66
2019-04-27T11:33:06.274Z,98019.02
2019-04-27T11:35:47.873Z,98019.72
2019-04-27T11:38:17.122Z,98017.62
2019-04-27T11:40:46.733Z,98017.27
2019-04-27T11:43:16.194Z,98010.59
2019-04-27T11:45:45.827Z,98001.57
2019-04-27T11:48:16.240Z,97993.36
2019-04-27T11:50:45.947Z,97987.34
2019-04-27T11:53:22.649Z,97979.41
2019-04-27T11:55:47.067Z,97970.43
2019-04-27T11:58:16.537Z,97971.78
2019-04-27T12:00:48.963Z,97972.10
2019-04-27T12:03:19.252Z,97959.31
2019-04-27T12:05:50.167Z,97966.36
2019-04-27T12:08:19.455Z,97958.00
2019-04-27T12:10:48.871Z,97954.03
2019-04-27T12:13:19.364Z,97956.65
2019-04-27T12:15:48.853Z,97946.25
2019-04-27T12:18:18.061Z,97942.69
2019-04-27T12:20:47.308Z,97940.16
2019-04-27T12:23:17.394Z,97935.31
2019-04-27T12:25:46.656Z,97928.34
2019-04-27T12:28:22.650Z,97928.81
2019-04-27T12:31:01.329Z,97926.64
2019-04-27T12:33:30.553Z,97918.07
2019-04-27T12:36:02.104Z,97917.92
2019-04-27T12:38:31.322Z,97915.25
2019-04-27T12:41:00.588Z,97918.56
2019-04-27T12:43:29.799Z,97914.84
2019-04-27T12:45:59.242Z,97912.53
2019-04-27T12:48:28.467Z,97913.66
2019-04-27T12:50:58.013Z,97916.02
2019-04-27T12:53:47.623Z,97915.50
2019-04-27T12:56:26.548Z,97912.48
2019-04-27T12:59:02.613Z,97911.97
2019-04-27T13:01:31.859Z,97912.38
2019-04-27T13:04:01.468Z,97909.32
2019-04-27T13:06:30.762Z,97902.84
2019-04-27T13:09:02.051Z,97897.46
2019-04-27T13:11:31.337Z,97906.34
2019-04-27T13:14:00.576Z,97903.38
2019-04-27T13:16:30.505Z,97896.61
2019-04-27T13:18:59.856Z,97901.48
2019-04-27T13:21:29.100Z,97900.48
2019-04-27T13:24:04.100Z,97952.30
2019-04-27T13:26:29.335Z,97929.28
2019-04-27T13:28:58.879Z,97933.14
2019-04-27T13:31:29.367Z,97948.47
2019-04-27T13:34:02.631Z,97913.32
2019-04-27T13:36:33.098Z,97950.98
2019-04-27T13:39:02.286Z,97925.77
2019-04-27T13:41:32.925Z,97934.47
2019-04-27T13:44:06.429Z,97941.24
2019-04-27T13:46:52.949Z,97945.45
2019-04-27T13:49:56.326Z,97927.15
2019-04-27T13:52:29.999Z,97931.56
2019-04-27T13:54:59.332Z,97941.65
2019-04-27T13:57:28.603Z,97939.78
2019-04-27T13:59:58.022Z,97925.12
2019-04-27T14:02:32.271Z,97918.74
2019-04-27T14:05:00.289Z,97910.00
2019-04-27T14:07:29.864Z,97902.31
2019-04-27T14:10:00.029Z,97899.13
2019-04-27T14:12:31.320Z,97897.14
2019-04-27T14:15:00.523Z,97905.45
2019-04-27T14:17:31.897Z,97892.71
2019-04-27T14:20:01.457Z,97895.44
2019-04-27T14:22:31.626Z,97890.47
2019-04-27T14:25:00.929Z,97885.20
2019-04-27T14:27:36.764Z,97875.63
2019-04-27T14:30:06.276Z,97866.98
2019-04-27T14:32:35.906Z,97865.72
2019-04-27T14:35:05.490Z,97865.41
2019-04-27T14:37:34.945Z,97864.54
2019-04-27T14:40:04.678Z,97866.88
2019-04-27T14:42:34.236Z,97866.00
2019-04-27T14:45:03.752Z,97869.35
2019-04-27T14:47:33.154Z,97866.46
2019-04-27T14:50:04.250Z,97867.98
2019-04-27T14:52:34.608Z,97858.19
2019-04-27T14:55:04.705Z,97861.59
2019-04-27T14:57:33.948Z,97862.56
2019-04-27T15:00:05.276Z,97869.83
2019-04-27T15:02:34.689Z,97858.62
2019-04-27T15:05:04.877Z,97865.65
2019-04-27T15:07:34.303Z,97861.42
2019-04-27T15:10:04.803Z,97855.03
2019-04-27T15:12:35.499Z,97852.17
2019-04-27T15:15:05.707Z,97861.70
2019-04-27T15:17:35.306Z,97857.73
2019-04-27T15:20:09.233Z,97846.44
2019-04-27T15:22:40.341Z,97846.98
2019-04-27T15:25:13.563Z,97863.22
2019-04-27T15:27:46.907Z,97855.88
2019-04-27T15:30:22.553Z,97850.44
2019-04-27T15:33:20.181Z,97852.90
2019-04-27T15:36:07.512Z,97844.67
2019-04-27T15:38:43.002Z,97846.77
2019-04-27T15:41:31.526Z,97838.20
2019-04-27T15:44:05.830Z,97836.21
2019-04-27T15:46:33.768Z,97840.92
2019-04-27T15:49:09.767Z,97834.17
2019-04-27T15:51:34.443Z,97828.01
2019-04-27T15:54:03.779Z,97820.30
2019-04-27T15:56:35.171Z,97823.66
2019-04-27T15:59:08.140Z,97819.86
2019-04-27T16:01:39.527Z,97818.72
2019-04-27T16:04:11.139Z,97811.89
2019-04-27T16:06:42.893Z,97814.41
2019-04-27T16:09:15.858Z,97814.69
2019-04-27T16:11:50.174Z,97818.44
2019-04-27T16:14:19.367Z,97816.50
2019-04-27T16:16:48.792Z,97819.79
2019-04-27T16:19:18.472Z,97818.17
2019-04-27T16:21:54.084Z,97816.77
2019-04-27T16:24:21.129Z,97813.95
2019-04-27T16:26:52.292Z,97820.68
2019-04-27T16:29:22.960Z,97810.72
2019-04-27T16:31:53.719Z,97810.19
2019-04-27T16:34:23.407Z,97814.50
2019-04-27T16:36:52.803Z,97823.05
2019-04-27T16:39:22.481Z,97807.33
2019-04-27T16:41:51.714Z,97807.36
2019-04-27T16:44:20.958Z,97807.39
2019-04-27T16:46:50.188Z,97800.48
2019-04-27T16:49:19.451Z,97805.00
2019-04-27T16:51:50.210Z,97802.69
2019-04-27T16:54:21.375Z,97803.55
2019-04-27T16:57:03.184Z,97807.16
2019-04-27T16:59:43.425Z,97802.62
2019-04-27T17:02:01.673Z,97799.28
2019-04-27T17:04:31.503Z,97800.75
2019-04-27T17:07:01.076Z,97802.62
2019-04-27T17:09:36.355Z,97811.25
2019-04-27T17:12:02.850Z,97802.12
2019-04-27T17:14:49.068Z,97801.95
2019-04-27T17:17:42.803Z,97806.37
2019-04-27T17:20:19.561Z,97811.38
2019-04-27T17:22:45.731Z,97810.61
2019-04-27T17:25:15.508Z,97815.25
2019-04-27T17:27:53.386Z,97814.05
2019-04-27T17:30:24.822Z,97819.23
2019-04-27T17:33:18.399Z,97818.84
2019-04-27T17:35:48.854Z,97818.84
2019-04-27T17:38:18.288Z,97813.86
2019-04-27T17:40:48.449Z,97819.77
2019-04-27T17:43:18.771Z,97811.63
2019-04-27T17:45:48.592Z,97810.19
2019-04-27T17:48:18.483Z,97804.27
2019-04-27T17:50:49.001Z,97806.72
2019-04-27T17:53:20.274Z,97802.38
2019-04-27T17:55:49.183Z,97807.16
2019-04-27T17:58:20.926Z,97807.42
2019-04-27T18:00:49.378Z,97806.58
2019-04-27T18:03:21.045Z,97802.66
2019-04-27T18:05:51.965Z,97799.84
2019-04-27T18:08:25.065Z,97786.36
2019-04-27T18:10:53.689Z,97791.30
2019-04-27T18:13:25.534Z,97803.98
2019-04-27T18:15:54.329Z,97810.95
2019-04-27T18:18:40.384Z,97813.27
2019-04-27T18:21:12.765Z,97820.55
2019-04-27T18:23:45.413Z,97823.80
2019-04-27T18:26:25.154Z,97825.23
2019-04-27T18:28:54.448Z,97827.63
2019-04-27T18:31:23.694Z,97826.56
2019-04-27T18:33:52.903Z,97829.05
2019-04-27T18:36:22.171Z,97827.75
2019-04-27T18:38:51.781Z,97839.23
2019-04-27T18:41:21.279Z,97834.06
2019-04-27T18:43:52.175Z,97836.31
2019-04-27T18:46:24.680Z,97836.83
2019-04-27T18:49:11.492Z,97846.00
2019-04-27T18:52:17.997Z,97838.64
2019-04-27T18:54:48.136Z,97847.27
2019-04-27T18:57:17.619Z,97845.84
2019-04-27T18:59:48.243Z,97847.85
2019-04-27T19:02:18.481Z,97845.09
2019-04-27T19:04:50.004Z,97851.53
2019-04-27T19:07:19.969Z,97862.94
2019-04-27T19:09:49.668Z,97937.31
2019-04-27T19:12:20.473Z,97929.25
2019-04-27T19:14:50.121Z,97934.53
2019-04-27T19:17:19.899Z,97950.50
2019-04-27T19:19:49.356Z,97957.80
2019-04-27T19:22:18.601Z,97960.91
2019-04-27T19:24:48.238Z,97983.15
2019-04-27T19:27:53.415Z,97988.28
2019-04-27T19:30:32.954Z,97998.11
2019-04-27T19:33:02.384Z,98003.41
2019-04-27T19:35:34.078Z,98009.55
2019-04-27T19:38:03.320Z,98016.15
2019-04-27T19:40:32.527Z,98022.92
2019-04-27T19:43:01.771Z,98022.62
2019-04-27T19:45:30.996Z,98026.73
2019-04-27T19:48:00.239Z,98043.04
2019-04-27T19:50:29.457Z,98035.02
2019-04-27T19:53:00.450Z,98046.35
2019-04-27T19:55:30.759Z,98045.89
2019-04-27T19:58:01.737Z,98040.08
2019-04-27T20:01:09.689Z,98048.30
2019-04-27T20:03:34.921Z,98032.04
2019-04-27T20:06:04.351Z,98041.95
2019-04-27T20:08:36.070Z,98040.04
2019-04-27T20:11:05.308Z,98033.50
2019-04-27T20:13:34.571Z,98040.22
2019-04-27T20:16:03.880Z,98044.13
2019-04-27T20:18:33.124Z,98041.12
2019-04-27T20:21:02.341Z,98030.48
2019-04-27T20:23:31.863Z,98047.00
2019-04-27T20:26:01.084Z,98050.59
2019-04-27T20:28:31.417Z,98052.23
2019-04-27T20:31:02.726Z,98058.74
2019-04-27T20:33:32.043Z,98064.80
2019-04-27T20:36:01.092Z,98056.22
2019-04-27T20:38:31.674Z,98055.00
2019-04-27T20:41:01.416Z,98071.44
2019-04-27T20:43:31.810Z,98087.19
2019-04-27T20:46:02.021Z,98103.85
2019-04-27T20:48:31.364Z,98109.38
2019-04-27T20:51:03.619Z,98115.07
2019-04-27T20:53:41.922Z,98119.38
2019-04-27T20:56:11.385Z,98126.02
2019-04-27T20:58:41.116Z,98128.95
2019-04-27T21:01:11.399Z,98129.78
2019-04-27T21:03:51.080Z,98132.43
2019-04-27T21:06:51.311Z,98131.61
2019-04-27T21:09:21.295Z,98129.75
2019-04-27T21:11:50.768Z,98118.85
2019-04-27T21:14:21.687Z,98122.92
2019-04-27T21:16:51.715Z,98120.30
2019-04-27T21:19:21.205Z,98121.70
2019-04-27T21:21:51.000Z,98114.08
2019-04-27T21:24:22.689Z,98112.42
2019-04-27T21:26:51.633Z,98111.39
2019-04-27T21:29:21.208Z,98118.31
2019-04-27T21:31:52.000Z,98122.58
2019-04-27T21:34:22.020Z,98127.26
2019-04-27T21:36:51.301Z,98132.27
2019-04-27T21:39:21.734Z,98136.66
2019-04-27T21:41:51.723Z,98133.09
2019-04-27T21:44:21.829Z,98125.14
2019-04-27T21:46:51.918Z,98127.88
2019-04-27T21:49:22.939Z,98125.34
2019-04-27T21:52:03.651Z,98132.34
2019-04-27T21:54:33.750Z,98129.33
2019-04-27T21:57:03.137Z,98133.59
2019-04-27T21:59:32.390Z,98127.68
2019-04-27T22:02:05.924Z,98128.43
2019-04-27T22:04:35.197Z,98134.92
2019-04-27T22:07:04.849Z,98148.66
2019-04-27T22:09:34.083Z,98154.16
2019-04-27T22:12:03.457Z,98160.36
2019-04-27T22:14:32.711Z,98169.35
2019-04-27T22:17:01.916Z,98169.95
2019-04-27T22:19:31.519Z,98164.16
2019-04-27T22:22:04.832Z,98171.72
2019-04-27T22:24:36.910Z,98163.52
2019-04-27T22:27:06.143Z,98155.33
2019-04-27T22:29:35.378Z,98153.56
2019-04-27T22:32:04.669Z,98171.70
2019-04-27T22:34:36.925Z,98178.72
2019-04-27T22:37:06.159Z,98198.59
2019-04-27T22:40:01.005Z,98195.04
2019-04-27T22:43:01.646Z,98186.00
2019-04-27T22:45:33.150Z,98185.03
2019-04-27T22:48:02.359Z,98172.16
2019-04-27T22:50:31.603Z,98172.88
2019-04-27T22:53:00.817Z,98176.16
2019-04-27T22:55:31.018Z,98178.93
2019-04-27T22:58:11.712Z,98188.20
2019-04-27T23:01:05.947Z,98196.56
2019-04-27T23:03:36.750Z,98204.94
2019-04-27T23:06:08.163Z,98202.72
2019-04-27T23:08:38.830Z,98210.15
2019-04-27T23:11:08.301Z,98218.59
2019-04-27T23:13:37.516Z,98220.09
2019-04-27T23:16:08.632Z,98233.20
2019-04-27T23:18:37.849Z,98228.51
2019-04-27T23:21:07.462Z,98232.81
2019-04-27T23:23:36.668Z,98235.00
2019-04-27T23:26:05.912Z,98244.07
2019-04-27T23:28:35.229Z,98247.34
2019-04-27T23:31:10.908Z,98253.05
2019-04-27T23:33:42.655Z,98257.28
2019-04-27T23:36:11.893Z,98256.98
2019-04-27T23:38:41.107Z,98264.96
2019-04-27T23:41:11.629Z,98264.93
2019-04-27T23:43:47.966Z,98270.73
2019-04-27T23:46:17.205Z,98268.38
2019-04-27T23:48:46.429Z,98265.16
2019-04-27T23:51:29.536Z,98263.17
2019-04-27T23:53:59.153Z,98263.73
2019-04-27T23:56:28.387Z,98268.23
2019-04-27T23:58:57.611Z,98259.63
